Time;durP1;ratioP1;P1;durP2;ratioP2;P2;SDS_P1;SDS_P2;PMS_P1;PMS_P2;Temp;Humidity;BMP_temperature;BMP_pressure;BME280_temperature;BME280_humidity;BME280_pressure;Samples;Min_cycle;Max_cycle;Signal;HPM_P1;HPM_P2
2023/09/19 00:01:00;;;;;;;1.65;0.70;;;17.30;99.90;;;;;;4934005;29;20059;-75
2023/09/19 00:03:30;;;;;;;2.05;0.60;;;17.30;99.90;;;;;;4934706;29;20090;-75
2023/09/19 00:05:59;;;;;;;0.80;0.50;;;17.30;99.90;;;;;;4933204;29;20039;-75
2023/09/19 00:08:25;;;;;;;1.95;0.50;;;17.30;99.90;;;;;;4947062;28;20491;-75
2023/09/19 00:11:10;;;;;;;1.25;0.57;;;17.30;99.90;;;;;;4933916;29;20028;-74
2023/09/19 00:13:43;;;;;;;1.58;0.50;;;17.30;99.90;;;;;;4933904;29;20031;-75
2023/09/19 00:16:12;;;;;;;1.33;0.60;;;17.30;99.90;;;;;;4939125;28;20016;-75
2023/09/19 00:18:44;;;;;;;0.95;0.40;;;17.30;99.90;;;;;;4933959;29;20055;-76
2023/09/19 00:21:10;;;;;;;1.58;0.88;;;17.30;99.90;;;;;;4932790;29;20502;-76
2023/09/19 00:23:40;;;;;;;1.35;0.65;;;17.30;99.90;;;;;;4933877;29;20082;-76
2023/09/19 00:26:12;;;;;;;0.88;0.50;;;17.30;99.90;;;;;;4931643;29;20453;-76
2023/09/19 00:28:41;;;;;;;1.75;0.60;;;17.30;99.90;;;;;;4931540;29;20046;-75
2023/09/19 00:31:09;;;;;;;1.63;0.57;;;17.30;99.90;;;;;;4933507;29;20046;-76
2023/09/19 00:33:41;;;;;;;0.70;0.43;;;17.30;99.90;;;;;;4932813;29;20023;-77
2023/09/19 00:36:07;;;;;;;2.00;0.65;;;17.30;99.90;;;;;;4929767;29;20505;-75
2023/09/19 00:38:46;;;;;;;2.97;0.50;;;17.20;99.90;;;;;;4943562;28;20032;-75
2023/09/19 00:41:17;;;;;;;2.88;0.60;;;17.30;99.90;;;;;;4925741;29;20019;-75
2023/09/19 00:43:50;;;;;;;1.45;0.60;;;17.20;99.90;;;;;;4928004;29;20110;-76
2023/09/19 00:46:19;;;;;;;1.85;0.60;;;17.20;99.90;;;;;;4945674;28;20074;-76
2023/09/19 00:48:51;;;;;;;1.50;0.52;;;17.30;99.90;;;;;;4932111;29;20111;-76
2023/09/19 00:51:22;;;;;;;0.82;0.50;;;17.20;99.90;;;;;;4930500;29;20035;-75
2023/09/19 00:53:53;;;;;;;0.90;0.50;;;17.20;99.90;;;;;;4932254;29;20127;-77
2023/09/19 00:56:20;;;;;;;1.55;0.50;;;17.30;99.90;;;;;;4929807;29;20123;-76
2023/09/19 00:58:47;;;;;;;1.77;0.68;;;17.30;99.90;;;;;;4930632;29;20528;-76
2023/09/19 01:01:14;;;;;;;1.90;0.45;;;17.20;99.90;;;;;;4930226;29;20118;-76
2023/09/19 01:03:41;;;;;;;0.90;0.40;;;17.20;99.90;;;;;;4931959;29;20118;-75
2023/09/19 01:06:08;;;;;;;2.25;0.70;;;17.30;99.90;;;;;;4934235;29;20094;-75
2023/09/19 01:08:35;;;;;;;0.88;0.60;;;17.20;99.90;;;;;;4928724;29;20039;-75
2023/09/19 01:11:19;;;;;;;0.63;0.40;;;17.20;99.90;;;;;;4933595;29;20553;-76
2023/09/19 01:14:11;;;;;;;1.65;0.70;;;17.20;99.90;;;;;;4933846;29;20024;-77
2023/09/19 01:16:53;;;;;;;1.58;0.50;;;17.20;99.90;;;;;;4934547;29;20026;-77
2023/09/19 01:19:43;;;;;;;0.60;0.47;;;17.30;99.90;;;;;;4930654;29;20031;-77
2023/09/19 01:22:52;;;;;;;1.10;0.60;;;17.20;99.90;;;;;;4929701;29;20028;-75
2023/09/19 01:25:23;;;;;;;1.65;0.82;;;17.20;99.90;;;;;;4941641;28;20036;-74
2023/09/19 01:28:20;;;;;;;1.15;0.60;;;17.20;99.90;;;;;;4929211;29;20054;-76
2023/09/19 01:30:54;;;;;;;1.85;0.85;;;17.20;99.90;;;;;;4945810;28;20090;-75
2023/09/19 01:33:20;;;;;;;1.60;0.70;;;17.20;99.90;;;;;;4927074;29;20035;-76
2023/09/19 01:35:58;;;;;;;1.70;0.95;;;17.20;99.90;;;;;;4926689;29;20390;-76
2023/09/19 01:38:32;;;;;;;1.30;0.80;;;17.20;99.90;;;;;;4930225;29;20498;-75
2023/09/19 01:41:09;;;;;;;0.93;0.63;;;17.20;99.90;;;;;;4926888;29;20059;-75
2023/09/19 01:43:40;;;;;;;0.82;0.52;;;17.20;99.90;;;;;;4929400;29;20513;-75
2023/09/19 01:46:16;;;;;;;1.05;0.80;;;17.20;99.90;;;;;;4929922;29;20046;-74
2023/09/19 01:49:20;;;;;;;1.15;0.70;;;17.20;99.90;;;;;;4944836;28;20493;-75
2023/09/19 01:52:09;;;;;;;2.08;0.80;;;17.20;99.90;;;;;;4929581;29;20027;-74
2023/09/19 01:54:52;;;;;;;4.63;1.10;;;17.20;99.90;;;;;;4931985;29;20040;-75
2023/09/19 01:57:29;;;;;;;2.17;0.90;;;17.20;99.90;;;;;;4930434;29;20067;-75
2023/09/19 02:00:07;;;;;;;2.80;0.90;;;17.20;99.90;;;;;;4934362;29;20028;-75
2023/09/19 02:02:42;;;;;;;1.88;0.70;;;17.20;99.90;;;;;;4930810;29;20538;-75
2023/09/19 02:05:08;;;;;;;1.60;0.70;;;17.20;99.90;;;;;;4934622;29;20117;-75
2023/09/19 02:08:13;;;;;;;2.85;0.90;;;17.20;99.90;;;;;;4928518;29;20031;-74
2023/09/19 02:10:48;;;;;;;2.75;0.73;;;17.20;99.90;;;;;;4933917;29;20076;-74
2023/09/19 02:13:22;;;;;;;2.00;0.80;;;17.20;99.90;;;;;;4948063;28;20422;-75
2023/09/19 02:15:51;;;;;;;2.13;1.17;;;17.10;99.90;;;;;;4934907;29;20055;-74
2023/09/19 02:18:19;;;;;;;1.38;0.70;;;17.10;99.90;;;;;;4933471;29;20495;-75
2023/09/19 02:20:45;;;;;;;1.92;0.90;;;17.10;99.90;;;;;;4947954;28;20544;-75
2023/09/19 02:23:15;;;;;;;3.63;0.80;;;17.00;99.90;;;;;;4931266;29;20043;-74
2023/09/19 02:26:06;;;;;;;2.85;0.80;;;17.10;99.90;;;;;;4934731;29;20123;-75
2023/09/19 02:28:32;;;;;;;1.60;0.80;;;17.00;99.90;;;;;;4935391;29;20058;-75
2023/09/19 02:30:58;;;;;;;1.65;0.88;;;17.00;99.90;;;;;;4933238;29;20526;-73
2023/09/19 02:33:32;;;;;;;1.85;1.00;;;17.00;99.90;;;;;;4931881;29;20042;-75
2023/09/19 02:35:58;;;;;;;2.30;1.08;;;17.00;99.90;;;;;;4936448;29;20534;-75
2023/09/19 02:38:25;;;;;;;1.60;0.88;;;17.00;99.90;;;;;;4934122;29;20028;-75
2023/09/19 02:40:52;;;;;;;2.75;0.82;;;17.00;99.90;;;;;;4947172;28;20106;-74
2023/09/19 02:43:21;;;;;;;1.38;0.70;;;16.90;99.90;;;;;;4933863;29;20027;-74
2023/09/19 02:45:49;;;;;;;2.20;0.98;;;16.90;99.90;;;;;;4958628;23;20050;-76
2023/09/19 02:48:15;;;;;;;3.55;0.77;;;16.90;99.90;;;;;;5012354;28;20419;-76
2023/09/19 02:50:44;;;;;;;3.33;1.00;;;16.90;99.90;;;;;;5002552;28;20541;-76
2023/09/19 02:53:16;;;;;;;1.92;0.80;;;16.90;99.90;;;;;;5030504;28;20025;-76
2023/09/19 02:55:42;;;;;;;2.80;1.02;;;16.90;99.90;;;;;;5008735;28;20102;-76
2023/09/19 02:58:11;;;;;;;1.95;0.80;;;16.90;99.90;;;;;;4996311;28;20469;-77
2023/09/19 03:00:37;;;;;;;2.95;1.13;;;16.90;99.90;;;;;;4988376;28;20061;-77
2023/09/19 03:03:05;;;;;;;2.92;0.88;;;16.80;99.90;;;;;;4995102;28;20362;-76
2023/09/19 03:05:31;;;;;;;5.60;0.90;;;16.80;99.90;;;;;;4996633;28;20038;-76
2023/09/19 03:08:00;;;;;;;3.92;1.20;;;16.80;99.90;;;;;;4990925;28;20720;-76
2023/09/19 03:10:27;;;;;;;1.00;0.73;;;16.80;99.90;;;;;;4995804;28;20041;-76
2023/09/19 03:13:21;;;;;;;1.40;0.98;;;16.80;99.90;;;;;;4991149;28;20014;-76
2023/09/19 03:15:56;;;;;;;2.22;0.77;;;16.80;99.90;;;;;;5009640;28;20037;-81
2023/09/19 03:18:23;;;;;;;1.48;0.73;;;16.80;99.90;;;;;;4999995;28;20044;-80
2023/09/19 03:20:56;;;;;;;3.22;1.20;;;16.90;99.90;;;;;;4999234;28;20054;-80
2023/09/19 03:23:22;;;;;;;1.05;0.80;;;16.90;99.90;;;;;;4998469;28;20031;-76
2023/09/19 03:25:48;;;;;;;2.53;1.08;;;16.90;99.90;;;;;;4998190;28;20030;-79
2023/09/19 03:28:17;;;;;;;1.52;0.93;;;16.90;99.90;;;;;;4999677;28;20027;-81
2023/09/19 03:30:46;;;;;;;1.80;1.10;;;16.90;99.90;;;;;;4999055;28;20050;-79
2023/09/19 03:33:12;;;;;;;3.67;0.90;;;16.90;99.90;;;;;;4996638;28;20034;-80
2023/09/19 03:35:39;;;;;;;2.15;0.90;;;16.90;99.90;;;;;;4995616;28;20504;-81
2023/09/19 03:38:05;;;;;;;1.00;0.82;;;16.90;99.90;;;;;;4998823;28;20037;-80
2023/09/19 03:40:31;;;;;;;3.60;1.20;;;16.90;99.90;;;;;;5012159;28;20109;-79
2023/09/19 03:43:00;;;;;;;2.22;1.10;;;16.90;99.90;;;;;;4997244;28;20026;-77
2023/09/19 03:45:25;;;;;;;1.40;0.88;;;16.90;99.90;;;;;;5002977;28;20022;-79
2023/09/19 03:47:51;;;;;;;2.33;1.02;;;17.00;99.90;;;;;;5005639;28;20109;-78
2023/09/19 03:50:17;;;;;;;3.22;1.45;;;17.00;99.90;;;;;;5004637;28;20015;-80
2023/09/19 03:52:45;;;;;;;2.30;1.13;;;17.00;99.90;;;;;;5004743;28;20003;-81
2023/09/19 03:55:14;;;;;;;3.00;1.13;;;17.00;99.90;;;;;;5004102;28;20022;-80
2023/09/19 03:57:50;;;;;;;3.35;1.50;;;17.00;99.90;;;;;;5002266;28;20035;-78
2023/09/19 04:00:26;;;;;;;2.17;1.20;;;17.00;99.90;;;;;;5000145;28;20836;-79
2023/09/19 04:02:52;;;;;;;2.33;1.10;;;17.00;99.90;;;;;;4998875;28;20030;-80
2023/09/19 04:05:21;;;;;;;2.42;1.20;;;17.00;99.90;;;;;;5015478;28;20092;-78
2023/09/19 04:07:46;;;;;;;2.92;1.20;;;16.90;99.90;;;;;;4998448;28;20023;-78
2023/09/19 04:10:14;;;;;;;2.55;1.30;;;16.90;99.90;;;;;;4999168;28;20034;-79
2023/09/19 04:12:40;;;;;;;3.05;1.60;;;16.90;99.90;;;;;;5012841;28;20038;-79
2023/09/19 04:15:13;;;;;;;4.10;1.70;;;16.90;99.90;;;;;;5000382;28;20022;-80
2023/09/19 04:17:39;;;;;;;1.53;1.00;;;16.80;99.90;;;;;;4993677;28;20110;-80
2023/09/19 04:20:06;;;;;;;4.88;1.10;;;16.80;99.90;;;;;;4997078;28;20049;-79
2023/09/19 04:22:32;;;;;;;2.17;1.25;;;16.70;99.90;;;;;;4999804;28;20026;-78
2023/09/19 04:24:57;;;;;;;1.52;1.20;;;16.80;99.90;;;;;;5013371;28;20026;-78
2023/09/19 04:27:23;;;;;;;4.28;1.23;;;16.70;99.90;;;;;;4997421;28;20019;-77
2023/09/19 04:29:50;;;;;;;3.58;1.52;;;16.70;99.90;;;;;;4998818;28;20046;-78
2023/09/19 04:32:19;;;;;;;3.50;1.20;;;16.70;99.90;;;;;;4997494;28;20045;-80
2023/09/19 04:34:45;;;;;;;5.03;1.30;;;16.70;99.90;;;;;;4996258;28;20105;-78
2023/09/19 04:37:10;;;;;;;3.45;1.23;;;16.70;99.90;;;;;;4994559;28;20624;-79
2023/09/19 04:39:39;;;;;;;5.50;1.70;;;16.60;99.90;;;;;;5013203;28;20072;-79
2023/09/19 04:42:08;;;;;;;6.72;1.20;;;16.70;99.90;;;;;;4996567;28;20034;-80
2023/09/19 04:44:33;;;;;;;2.80;1.13;;;16.60;99.90;;;;;;4997255;28;20034;-77
2023/09/19 04:47:03;;;;;;;2.35;1.05;;;16.60;99.90;;;;;;5010764;28;20392;-79
2023/09/19 04:49:28;;;;;;;2.55;1.00;;;16.60;99.90;;;;;;5010723;28;20025;-77
2023/09/19 04:52:03;;;;;;;2.63;1.45;;;16.50;99.90;;;;;;4990833;28;20022;-77
2023/09/19 04:54:29;;;;;;;4.05;1.30;;;16.50;99.90;;;;;;4995668;28;20026;-80
2023/09/19 04:56:54;;;;;;;4.00;2.08;;;16.50;99.90;;;;;;4998865;28;20031;-76
2023/09/19 04:59:23;;;;;;;3.42;1.42;;;16.50;99.90;;;;;;4996310;28;20085;-78
2023/09/19 05:01:51;;;;;;;4.72;1.80;;;16.50;99.90;;;;;;5010409;28;20057;-79
2023/09/19 05:04:20;;;;;;;3.97;1.88;;;16.50;99.90;;;;;;4997378;28;20085;-79
2023/09/19 05:06:48;;;;;;;2.63;1.35;;;16.50;99.90;;;;;;4998244;28;20053;-80
2023/09/19 05:09:15;;;;;;;3.38;1.20;;;16.50;99.90;;;;;;5008676;28;20030;-80
2023/09/19 05:11:41;;;;;;;5.10;1.30;;;16.50;99.90;;;;;;4995115;28;20053;-80
2023/09/19 05:14:06;;;;;;;2.50;1.15;;;16.50;99.90;;;;;;4996597;28;20469;-79
2023/09/19 05:16:35;;;;;;;3.88;1.45;;;16.50;99.90;;;;;;4999020;28;20061;-81
2023/09/19 05:19:01;;;;;;;3.20;0.95;;;16.40;99.90;;;;;;4998219;28;20026;-80
2023/09/19 05:21:30;;;;;;;4.60;1.23;;;16.50;99.90;;;;;;4994396;28;20480;-74
2023/09/19 05:24:02;;;;;;;1.77;1.08;;;16.50;99.90;;;;;;4982646;28;20026;-74
2023/09/19 05:26:28;;;;;;;2.00;1.00;;;16.60;99.90;;;;;;5003183;28;20113;-75
2023/09/19 05:28:53;;;;;;;1.92;0.90;;;16.70;99.90;;;;;;4989661;28;20037;-74
2023/09/19 05:31:19;;;;;;;2.95;1.20;;;16.80;99.90;;;;;;4986254;28;20504;-74
2023/09/19 05:33:44;;;;;;;1.30;0.50;;;16.90;99.90;;;;;;4988473;28;20023;-74
2023/09/19 05:36:11;;;;;;;5.40;0.90;;;16.90;99.90;;;;;;4985551;28;20504;-74
2023/09/19 05:38:40;;;;;;;1.20;0.80;;;17.10;99.90;;;;;;4985759;28;20027;-75
2023/09/19 05:41:06;;;;;;;1.40;0.68;;;17.10;99.90;;;;;;4988401;28;20033;-74
2023/09/19 05:43:32;;;;;;;1.58;0.70;;;17.20;99.90;;;;;;4986171;28;20026;-74
2023/09/19 05:46:00;;;;;;;3.40;0.80;;;17.30;99.90;;;;;;4988074;28;20037;-74
2023/09/19 05:48:25;;;;;;;2.53;0.98;;;17.40;99.90;;;;;;5000763;28;20490;-73
2023/09/19 05:50:51;;;;;;;2.67;1.15;;;17.40;99.90;;;;;;4997614;28;20022;-74
2023/09/19 05:53:18;;;;;;;2.90;0.70;;;17.40;99.90;;;;;;4987947;28;20069;-74
2023/09/19 05:55:47;;;;;;;1.52;1.00;;;17.40;99.90;;;;;;4989765;28;20025;-74
2023/09/19 05:58:17;;;;;;;1.65;0.95;;;17.40;99.90;;;;;;4983252;28;20104;-75
2023/09/19 06:00:48;;;;;;;1.42;0.93;;;17.40;99.90;;;;;;4986430;28;20034;-73
2023/09/19 06:03:17;;;;;;;2.13;0.90;;;17.50;99.90;;;;;;4986231;28;20030;-74
2023/09/19 06:05:49;;;;;;;0.93;0.80;;;17.50;99.90;;;;;;4985472;28;20406;-74
2023/09/19 06:08:15;;;;;;;1.65;0.82;;;17.60;99.90;;;;;;4989239;28;20039;-75
2023/09/19 06:10:40;;;;;;;1.70;0.90;;;17.60;99.90;;;;;;4989965;28;20031;-75
2023/09/19 06:13:09;;;;;;;1.83;0.63;;;17.60;99.90;;;;;;4986191;28;20100;-75
2023/09/19 06:15:35;;;;;;;1.10;0.60;;;17.60;99.90;;;;;;4988926;28;20073;-75
2023/09/19 06:18:02;;;;;;;2.03;0.95;;;17.60;99.90;;;;;;4988169;28;20097;-76
2023/09/19 06:20:31;;;;;;;2.08;0.65;;;17.60;99.90;;;;;;4989171;28;20527;-72
2023/09/19 06:22:57;;;;;;;2.85;0.80;;;17.60;99.90;;;;;;4982510;28;20026;-72
2023/09/19 06:25:22;;;;;;;2.45;0.68;;;17.60;99.90;;;;;;4988503;28;20037;-74
2023/09/19 06:27:56;;;;;;;1.92;0.90;;;17.60;99.90;;;;;;4990972;28;20459;-77
2023/09/19 06:30:24;;;;;;;3.25;0.90;;;17.60;99.90;;;;;;4988404;28;20082;-78
2023/09/19 06:32:56;;;;;;;1.77;0.85;;;17.50;99.90;;;;;;4988623;28;20031;-78
2023/09/19 06:35:22;;;;;;;2.58;0.60;;;17.40;99.90;;;;;;5004057;28;20082;-77
2023/09/19 06:37:47;;;;;;;2.17;0.90;;;17.40;99.90;;;;;;4987881;28;20026;-76
2023/09/19 06:40:14;;;;;;;2.22;0.70;;;17.40;99.90;;;;;;4989282;28;20042;-75
2023/09/19 06:42:52;;;;;;;1.13;0.60;;;17.40;99.90;;;;;;4988003;28;20057;-75
2023/09/19 06:45:18;;;;;;;0.77;0.70;;;17.40;99.90;;;;;;4991251;28;20113;-77
2023/09/19 06:47:50;;;;;;;2.03;0.80;;;17.40;99.90;;;;;;4989757;28;20109;-78
2023/09/19 06:50:26;;;;;;;1.88;0.70;;;17.40;99.90;;;;;;5013193;28;20026;-79
2023/09/19 06:52:57;;;;;;;2.08;0.80;;;17.30;99.90;;;;;;4991901;28;20019;-78
2023/09/19 06:55:27;;;;;;;1.27;0.85;;;17.30;99.90;;;;;;5006728;28;20370;-78
2023/09/19 06:57:54;;;;;;;3.08;0.90;;;17.30;99.90;;;;;;4988124;28;20496;-78
2023/09/19 07:00:23;;;;;;;3.53;0.90;;;17.40;99.90;;;;;;4991476;28;20640;-77
2023/09/19 07:03:25;;;;;;;2.58;0.80;;;17.30;99.90;;;;;;4982781;28;20122;-78
2023/09/19 07:05:52;;;;;;;0.88;0.50;;;17.30;99.90;;;;;;4986270;28;20094;-77
2023/09/19 07:08:19;;;;;;;0.90;0.60;;;17.30;99.90;;;;;;4990788;28;20023;-76
2023/09/19 07:10:53;;;;;;;2.00;0.73;;;17.30;99.90;;;;;;4988461;28;20030;-78
2023/09/19 07:13:19;;;;;;;1.38;0.63;;;17.30;99.90;;;;;;4984357;28;20038;-77
2023/09/19 07:15:49;;;;;;;1.88;0.82;;;17.30;99.90;;;;;;4983082;28;20023;-78
2023/09/19 07:18:16;;;;;;;2.03;0.80;;;17.30;99.90;;;;;;4985510;28;20300;-77
2023/09/19 07:20:49;;;;;;;2.05;0.68;;;17.40;99.90;;;;;;4986435;28;20069;-76
2023/09/19 07:23:22;;;;;;;1.75;0.80;;;17.50;99.90;;;;;;4987143;28;20054;-76
2023/09/19 07:25:48;;;;;;;;;;;17.50;99.90;;;;;;5001381;28;20058;-76
2023/09/19 07:28:17;;;;;;;1.92;0.70;;;17.60;99.90;;;;;;4987727;28;20398;-75
2023/09/19 07:30:46;;;;;;;2.50;0.55;;;17.60;99.90;;;;;;5002561;28;20026;-74
2023/09/19 07:33:14;;;;;;;2.45;0.88;;;17.70;99.90;;;;;;4985707;28;20022;-74
2023/09/19 07:35:47;;;;;;;1.67;0.68;;;17.70;99.90;;;;;;4985986;28;20030;-74
2023/09/19 07:38:19;;;;;;;1.42;0.82;;;17.80;99.90;;;;;;4986815;28;20034;-74
2023/09/19 07:40:44;;;;;;;3.67;0.98;;;17.90;99.90;;;;;;4984047;28;20030;-74
2023/09/19 07:43:19;;;;;;;0.93;0.60;;;17.90;99.90;;;;;;4982832;28;20505;-75
2023/09/19 07:45:45;;;;;;;3.28;0.73;;;17.90;99.90;;;;;;4981509;28;20030;-75
2023/09/19 07:48:15;;;;;;;2.25;1.27;;;18.00;99.90;;;;;;4986002;28;20501;-75
2023/09/19 07:50:43;;;;;;;5.65;0.98;;;18.00;99.90;;;;;;4985646;28;20062;-74
2023/09/19 07:53:13;;;;;;;2.13;0.80;;;18.00;99.90;;;;;;4988365;28;20109;-74
2023/09/19 07:55:40;;;;;;;2.35;0.77;;;18.00;99.90;;;;;;4989280;28;20505;-75
2023/09/19 07:58:09;;;;;;;1.17;0.68;;;18.10;99.90;;;;;;4986345;28;20417;-74
2023/09/19 08:00:34;;;;;;;1.73;0.80;;;18.00;99.90;;;;;;4985936;28;20037;-74
2023/09/19 08:03:03;;;;;;;1.23;0.75;;;18.10;99.90;;;;;;4988819;28;20627;-76
2023/09/19 08:05:29;;;;;;;1.40;0.85;;;18.10;99.90;;;;;;4992431;28;20029;-76
2023/09/19 08:07:56;;;;;;;3.17;0.80;;;18.10;99.90;;;;;;4991887;28;20385;-77
2023/09/19 08:10:35;;;;;;;2.88;1.00;;;18.20;99.90;;;;;;5007120;28;20759;-76
2023/09/19 08:13:02;;;;;;;1.50;0.77;;;18.20;99.90;;;;;;4991990;28;20018;-77
2023/09/19 08:15:27;;;;;;;3.97;1.00;;;18.30;99.90;;;;;;5006498;28;20161;-76
2023/09/19 08:17:53;;;;;;;2.28;1.05;;;18.30;99.90;;;;;;4993849;28;20069;-77
2023/09/19 08:20:22;;;;;;;1.90;0.80;;;18.30;99.90;;;;;;4992916;28;20099;-77
2023/09/19 08:22:56;;;;;;;1.63;1.02;;;18.30;99.90;;;;;;4993906;28;20026;-77
2023/09/19 08:25:23;;;;;;;3.50;0.60;;;18.30;99.90;;;;;;4988988;28;20026;-76
2023/09/19 08:27:52;;;;;;;1.48;0.82;;;18.40;99.90;;;;;;5002416;28;20042;-76
2023/09/19 08:30:24;;;;;;;1.27;0.73;;;18.40;99.90;;;;;;4990256;28;20025;-75
2023/09/19 08:33:00;;;;;;;4.70;0.90;;;18.40;99.90;;;;;;4985221;28;20105;-76
2023/09/19 08:35:29;;;;;;;1.73;0.70;;;18.50;99.90;;;;;;4981937;28;20050;-76
2023/09/19 08:37:55;;;;;;;1.88;0.80;;;18.50;99.90;;;;;;4987288;28;20076;-76
2023/09/19 08:40:21;;;;;;;1.60;1.00;;;18.50;99.90;;;;;;4986748;28;20081;-76
2023/09/19 08:42:49;;;;;;;2.85;0.60;;;18.60;99.90;;;;;;4990162;28;20428;-76
2023/09/19 08:45:15;;;;;;;1.83;1.00;;;18.60;99.90;;;;;;4986138;28;20095;-78
2023/09/19 08:47:47;;;;;;;1.80;0.80;;;18.60;99.90;;;;;;4985024;28;20046;-76
2023/09/19 08:50:29;;;;;;;5.53;0.80;;;18.60;99.90;;;;;;4985147;28;20038;-76
2023/09/19 08:53:01;;;;;;;2.05;0.88;;;18.60;99.90;;;;;;4997120;28;20034;-76
2023/09/19 08:55:28;;;;;;;1.60;0.90;;;18.60;99.90;;;;;;4982859;28;20073;-75
2023/09/19 08:58:06;;;;;;;3.17;0.90;;;18.60;99.90;;;;;;4999611;28;20160;-76
2023/09/19 09:00:33;;;;;;;2.20;0.82;;;18.70;99.90;;;;;;4995771;28;20033;-74
2023/09/19 09:03:00;;;;;;;4.55;1.77;;;18.70;99.90;;;;;;4981259;28;20077;-74
2023/09/19 09:05:28;;;;;;;1.65;0.90;;;18.90;99.90;;;;;;4979512;28;20028;-74
2023/09/19 09:07:57;;;;;;;1.65;0.60;;;19.00;99.90;;;;;;4980379;28;20061;-73
2023/09/19 09:10:23;;;;;;;4.00;0.73;;;19.20;99.90;;;;;;4981253;28;20046;-75
2023/09/19 09:12:58;;;;;;;2.45;1.10;;;19.30;99.90;;;;;;4984451;28;20499;-74
2023/09/19 09:15:24;;;;;;;1.38;0.80;;;19.40;99.90;;;;;;4984231;28;20026;-72
2023/09/19 09:17:52;;;;;;;3.10;0.90;;;19.50;99.90;;;;;;4981980;28;20812;-73
2023/09/19 09:20:22;;;;;;;4.50;0.95;;;19.50;99.90;;;;;;4980560;28;20027;-74
2023/09/19 09:22:55;;;;;;;3.75;1.00;;;19.50;99.90;;;;;;4980499;28;20034;-74
2023/09/19 09:25:24;;;;;;;2.53;0.98;;;19.50;99.90;;;;;;4980029;28;20041;-74
2023/09/19 09:28:01;;;;;;;1.90;0.73;;;19.60;99.90;;;;;;4978019;28;20026;-73
2023/09/19 09:30:34;;;;;;;2.17;0.90;;;19.60;99.90;;;;;;4978929;28;20069;-73
2023/09/19 09:33:15;;;;;;;2.15;0.88;;;19.60;99.90;;;;;;4980437;28;20106;-73
2023/09/19 09:35:51;;;;;;;4.03;0.95;;;19.70;99.90;;;;;;4996882;28;20034;-73
2023/09/19 09:38:21;;;;;;;2.15;1.00;;;19.70;99.90;;;;;;4983960;28;20137;-74
2023/09/19 09:40:59;;;;;;;3.65;1.05;;;19.80;99.90;;;;;;4984109;28;20061;-73
2023/09/19 09:43:30;;;;;;;1.80;0.98;;;19.80;99.90;;;;;;4978823;28;20417;-73
2023/09/19 09:49:14;;;;;;;2.42;1.30;;;20.00;99.90;;;;;;4975738;28;20035;-73
2023/09/19 09:51:38;;;;;;;1.80;0.77;;;20.00;99.90;;;;;;4983308;28;20060;-77
2023/09/19 09:54:15;;;;;;;4.40;1.48;;;20.10;99.90;;;;;;4985351;28;20121;-77
2023/09/19 09:56:58;;;;;;;2.45;0.80;;;20.20;99.90;;;;;;4996955;28;20409;-78
2023/09/19 09:59:46;;;;;;;3.13;1.13;;;20.30;99.90;;;;;;4983316;28;20102;-75
2023/09/19 10:02:24;;;;;;;2.33;0.90;;;20.30;99.90;;;;;;4979422;28;20647;-77
2023/09/19 10:04:51;;;;;;;1.73;1.08;;;20.30;99.90;;;;;;4986794;28;20026;-76
2023/09/19 10:08:08;;;;;;;2.38;1.10;;;20.30;99.90;;;;;;4980107;28;20022;-75
2023/09/19 10:13:14;;;;;;;4.95;1.20;;;20.40;99.90;;;;;;4986352;28;20031;-75
2023/09/19 10:15:50;;;;;;;2.33;1.10;;;20.40;99.90;;;;;;4983842;28;20089;-75
2023/09/19 10:18:24;;;;;;;2.88;1.10;;;20.40;99.90;;;;;;5001488;28;20038;-75
2023/09/19 10:20:50;;;;;;;1.33;0.77;;;20.40;99.90;;;;;;4986746;28;20022;-76
2023/09/19 10:23:23;;;;;;;3.05;1.00;;;20.50;99.90;;;;;;4987297;28;20027;-75
2023/09/19 10:25:52;;;;;;;1.38;0.85;;;20.50;99.90;;;;;;4999463;28;20045;-75
2023/09/19 10:28:21;;;;;;;1.85;0.80;;;20.40;99.90;;;;;;4988003;28;20555;-75
2023/09/19 10:30:52;;;;;;;2.08;0.90;;;20.50;99.90;;;;;;4982797;28;20064;-75
2023/09/19 10:33:20;;;;;;;3.08;0.90;;;20.50;99.90;;;;;;4976040;28;20026;-76
2023/09/19 10:36:02;;;;;;;2.35;1.02;;;20.60;99.90;;;;;;4984448;28;20500;-76
2023/09/19 10:38:28;;;;;;;1.10;0.70;;;20.60;99.90;;;;;;4983944;28;20024;-75
2023/09/19 10:40:59;;;;;;;1.67;0.80;;;20.70;99.90;;;;;;4983567;28;20512;-74
2023/09/19 10:43:38;;;;;;;1.80;0.70;;;20.70;99.90;;;;;;5002509;28;20031;-74
2023/09/19 10:46:10;;;;;;;3.78;1.17;;;20.70;99.90;;;;;;4989748;28;20121;-74
2023/09/19 10:48:37;;;;;;;2.15;1.05;;;20.60;99.90;;;;;;5000580;28;20036;-74
2023/09/19 10:51:04;;;;;;;2.88;0.90;;;20.70;99.90;;;;;;4983497;28;20054;-75
2023/09/19 10:53:46;;;;;;;3.58;1.20;;;20.60;99.90;;;;;;4984137;28;20022;-74
2023/09/19 10:56:41;;;;;;;1.50;0.88;;;20.60;99.90;;;;;;5003420;28;20046;-74
2023/09/19 10:59:24;;;;;;;3.03;0.98;;;20.50;99.90;;;;;;4985867;28;20030;-74
2023/09/19 11:01:57;;;;;;;1.58;0.82;;;20.40;99.90;;;;;;4989907;28;20088;-73
2023/09/19 11:04:33;;;;;;;1.40;0.82;;;20.40;99.90;;;;;;4987771;28;20034;-74
2023/09/19 11:07:11;;;;;;;1.90;1.13;;;20.40;99.90;;;;;;4989763;28;20400;-74
2023/09/19 11:09:53;;;;;;;4.10;1.02;;;20.30;99.90;;;;;;4991695;28;20421;-74
2023/09/19 11:12:52;;;;;;;2.97;1.15;;;20.40;99.90;;;;;;4989636;28;20091;-74
2023/09/19 11:15:58;;;;;;;2.33;0.90;;;20.50;99.90;;;;;;4987603;28;20038;-74
2023/09/19 11:18:42;;;;;;;3.03;0.70;;;20.50;99.90;;;;;;4986124;28;20038;-73
2023/09/19 11:21:30;;;;;;;2.15;1.05;;;20.50;99.90;;;;;;4982495;28;20370;-74
2023/09/19 11:24:30;;;;;;;2.65;0.82;;;20.60;99.90;;;;;;4986481;28;20034;-74
2023/09/19 11:27:13;;;;;;;4.95;0.98;;;20.70;99.70;;;;;;4985680;28;20464;-73
2023/09/19 11:29:42;;;;;;;2.60;0.77;;;20.80;99.40;;;;;;5000893;28;20026;-73
2023/09/19 11:32:09;;;;;;;1.67;0.80;;;20.90;99.00;;;;;;4981661;28;20030;-73
2023/09/19 11:34:46;;;;;;;2.40;0.90;;;20.90;98.90;;;;;;4987577;28;20030;-73
2023/09/19 11:37:14;;;;;;;3.60;1.00;;;21.00;98.70;;;;;;4988032;28;20493;-72
2023/09/19 11:40:01;;;;;;;1.38;0.80;;;21.00;98.30;;;;;;4990336;28;20026;-73
2023/09/19 11:42:42;;;;;;;4.93;1.30;;;21.10;98.40;;;;;;4987552;28;20038;-75
2023/09/19 11:45:29;;;;;;;1.73;0.70;;;21.10;97.60;;;;;;4988449;28;20481;-74
2023/09/19 11:47:59;;;;;;;2.25;0.73;;;21.10;97.30;;;;;;4988647;28;20031;-74
2023/09/19 11:50:27;;;;;;;6.60;1.48;;;21.20;97.60;;;;;;4986357;28;20026;-72
2023/09/19 11:52:56;;;;;;;2.67;0.82;;;21.20;97.60;;;;;;4990073;28;20031;-75
2023/09/19 11:55:22;;;;;;;2.63;1.20;;;21.30;97.40;;;;;;4982444;28;20110;-72
2023/09/19 11:57:50;;;;;;;1.35;0.90;;;21.30;97.50;;;;;;4989976;28;20026;-72
2023/09/19 12:00:21;;;;;;;2.53;0.70;;;21.30;96.90;;;;;;4988801;28;20366;-73
2023/09/19 12:02:50;;;;;;;2.30;0.90;;;21.30;96.80;;;;;;4990997;28;20022;-73
2023/09/19 12:05:16;;;;;;;1.70;0.80;;;21.40;97.00;;;;;;4985431;28;20033;-73
2023/09/19 12:07:48;;;;;;;1.20;0.80;;;21.40;97.00;;;;;;5001737;28;20036;-74
2023/09/19 12:10:17;;;;;;;3.22;1.00;;;21.50;96.80;;;;;;4990196;28;20034;-74
2023/09/19 12:12:49;;;;;;;2.30;0.80;;;21.60;97.10;;;;;;4989369;28;20104;-74
2023/09/19 12:15:15;;;;;;;2.03;0.90;;;21.70;96.80;;;;;;5005854;28;20056;-73
2023/09/19 12:17:42;;;;;;;1.42;0.80;;;21.70;96.90;;;;;;4985635;28;20026;-74
2023/09/19 12:20:12;;;;;;;1.27;0.80;;;21.80;96.20;;;;;;4990405;28;20035;-73
2023/09/19 12:22:46;;;;;;;2.60;1.13;;;21.80;96.30;;;;;;4988684;28;20045;-74
2023/09/19 12:25:17;;;;;;;1.83;0.77;;;21.80;96.30;;;;;;4987863;28;20037;-75
2023/09/19 12:27:44;;;;;;;1.90;0.90;;;21.80;95.70;;;;;;4990047;28;20039;-74
2023/09/19 12:30:14;;;;;;;1.40;0.80;;;21.80;95.90;;;;;;4987079;28;20026;-73
2023/09/19 12:32:40;;;;;;;2.20;1.02;;;21.80;96.00;;;;;;4982115;28;20023;-74
2023/09/19 12:35:12;;;;;;;2.97;0.95;;;21.70;95.90;;;;;;5001804;28;20029;-74
2023/09/19 12:37:52;;;;;;;2.30;1.00;;;21.70;96.00;;;;;;4988871;28;20457;-74
2023/09/19 12:40:22;;;;;;;5.45;1.27;;;21.70;96.60;;;;;;4987493;28;20099;-74
2023/09/19 12:42:53;;;;;;;7.90;1.30;;;21.70;96.90;;;;;;4989638;28;20101;-72
2023/09/19 12:45:19;;;;;;;3.58;1.33;;;21.70;96.70;;;;;;4989273;28;20515;-73
2023/09/19 12:48:29;;;;;;;1.50;1.00;;;21.70;96.30;;;;;;4984231;28;20034;-73
2023/09/19 12:51:22;;;;;;;1.77;0.90;;;21.70;96.00;;;;;;4989758;28;20030;-73
2023/09/19 12:53:57;;;;;;;1.63;0.73;;;21.60;96.40;;;;;;4991129;28;20518;-73
2023/09/19 12:56:24;;;;;;;3.80;1.33;;;21.60;96.00;;;;;;4988689;28;20030;-73
2023/09/19 12:59:03;;;;;;;1.33;0.98;;;21.60;95.80;;;;;;4987217;28;20053;-72
2023/09/19 13:01:29;;;;;;;3.03;0.90;;;21.60;96.10;;;;;;4983271;28;20338;-73
2023/09/19 13:04:18;;;;;;;1.13;0.75;;;21.70;94.90;;;;;;4988100;28;20417;-73
2023/09/19 13:06:44;;;;;;;2.88;1.02;;;21.70;94.40;;;;;;4987767;28;20025;-73
2023/09/19 13:09:11;;;;;;;3.00;0.80;;;21.80;94.30;;;;;;4988473;28;20492;-73
2023/09/19 13:11:41;;;;;;;2.10;1.20;;;21.90;93.70;;;;;;4988287;28;20022;-73
2023/09/19 13:14:19;;;;;;;4.05;1.20;;;21.90;93.10;;;;;;4986307;28;20050;-72
2023/09/19 13:17:19;;;;;;;1.90;0.90;;;22.00;93.10;;;;;;4999700;28;20073;-73